KCVO - Corvallis, OR
Updated: Tue, 16-Jan-2018 10:56pm PST
Clear
Clear
 Wind from calm
Wind: Calm
Temperature: 43°F , 6°C
Dew Point: 43°F , 6°C
Humidity: 100%
Barometer: 30.16 inHg , 1021.3 hPa
Clouds: Clear
Visibility: 10 miles , 16 km
2018/01/17 06:56 KCVO 170656Z AUTO 00000KT 10SM CLR 06/06 A3016 RMK AO2 SLP215 T00560056